sensor_id;sensor_type;location;lat;lon;timestamp;temperature;humidity
37322;DHT22;23697;48.684;9.032;2023-04-01T00:00:17;7.10;88.20
37322;DHT22;23697;48.684;9.032;2023-04-01T00:05:56;7.10;88.20
37322;DHT22;23697;48.684;9.032;2023-04-01T00:08:26;7.20;88.10
37322;DHT22;23697;48.684;9.032;2023-04-01T00:11:02;7.30;88.10
37322;DHT22;23697;48.684;9.032;2023-04-01T00:13:45;7.30;88.10
37322;DHT22;23697;48.684;9.032;2023-04-01T00:16:11;7.20;88.00
37322;DHT22;23697;48.684;9.032;2023-04-01T00:19:09;7.10;87.90
37322;DHT22;23697;48.684;9.032;2023-04-01T00:21:41;7.10;87.90
37322;DHT22;23697;48.684;9.032;2023-04-01T00:24:11;7.10;87.90
37322;DHT22;23697;48.684;9.032;2023-04-01T00:27:02;7.10;88.00
37322;DHT22;23697;48.684;9.032;2023-04-01T00:29:33;7.10;88.10
37322;DHT22;23697;48.684;9.032;2023-04-01T00:32:00;7.10;88.00
37322;DHT22;23697;48.684;9.032;2023-04-01T00:34:27;7.20;88.10
37322;DHT22;23697;48.684;9.032;2023-04-01T00:36:55;7.10;88.10
37322;DHT22;23697;48.684;9.032;2023-04-01T00:39:22;7.20;88.00
37322;DHT22;23697;48.684;9.032;2023-04-01T00:41:48;7.30;88.10
37322;DHT22;23697;48.684;9.032;2023-04-01T00:44:16;7.20;88.00
37322;DHT22;23697;48.684;9.032;2023-04-01T00:46:43;7.20;88.00
37322;DHT22;23697;48.684;9.032;2023-04-01T00:49:16;7.30;88.20
37322;DHT22;23697;48.684;9.032;2023-04-01T00:51:44;7.10;88.20
37322;DHT22;23697;48.684;9.032;2023-04-01T00:54:13;7.20;88.20
37322;DHT22;23697;48.684;9.032;2023-04-01T00:56:46;7.20;88.20
37322;DHT22;23697;48.684;9.032;2023-04-01T00:59:16;7.20;88.20
37322;DHT22;23697;48.684;9.032;2023-04-01T01:01:45;7.30;88.20
37322;DHT22;23697;48.684;9.032;2023-04-01T01:04:23;7.10;88.20
37322;DHT22;23697;48.684;9.032;2023-04-01T01:06:51;7.20;88.30
37322;DHT22;23697;48.684;9.032;2023-04-01T01:09:25;7.20;88.30
37322;DHT22;23697;48.684;9.032;2023-04-01T01:12:13;7.20;88.30
37322;DHT22;23697;48.684;9.032;2023-04-01T01:15:00;7.20;88.40
37322;DHT22;23697;48.684;9.032;2023-04-01T01:17:47;7.20;88.40
37322;DHT22;23697;48.684;9.032;2023-04-01T01:20:55;7.10;88.40
37322;DHT22;23697;48.684;9.032;2023-04-01T01:23:46;7.20;88.40
37322;DHT22;23697;48.684;9.032;2023-04-01T01:26:44;7.10;88.50
37322;DHT22;23697;48.684;9.032;2023-04-01T01:32:47;7.10;88.40
37322;DHT22;23697;48.684;9.032;2023-04-01T01:35:38;7.10;88.30
37322;DHT22;23697;48.684;9.032;2023-04-01T01:38:24;7.10;88.30
37322;DHT22;23697;48.684;9.032;2023-04-01T01:41:10;7.20;88.30
37322;DHT22;23697;48.684;9.032;2023-04-01T01:43:56;7.10;88.40
37322;DHT22;23697;48.684;9.032;2023-04-01T01:46:41;7.20;88.40
37322;DHT22;23697;48.684;9.032;2023-04-01T01:49:26;7.00;88.40
37322;DHT22;23697;48.684;9.032;2023-04-01T01:52:12;7.10;88.50
37322;DHT22;23697;48.684;9.032;2023-04-01T01:54:57;7.00;88.40
37322;DHT22;23697;48.684;9.032;2023-04-01T01:57:42;7.00;88.50
37322;DHT22;23697;48.684;9.032;2023-04-01T02:00:27;7.00;88.40
37322;DHT22;23697;48.684;9.032;2023-04-01T02:03:12;7.00;88.40
37322;DHT22;23697;48.684;9.032;2023-04-01T02:06:00;7.00;88.40
37322;DHT22;23697;48.684;9.032;2023-04-01T02:08:47;7.00;88.30
37322;DHT22;23697;48.684;9.032;2023-04-01T02:11:34;7.10;88.40
37322;DHT22;23697;48.684;9.032;2023-04-01T02:14:20;7.00;88.30
37322;DHT22;23697;48.684;9.032;2023-04-01T02:17:05;7.00;88.40
37322;DHT22;23697;48.684;9.032;2023-04-01T02:19:51;7.00;88.40
37322;DHT22;23697;48.684;9.032;2023-04-01T02:22:37;7.00;88.40
37322;DHT22;23697;48.684;9.032;2023-04-01T02:25:24;6.90;88.40
37322;DHT22;23697;48.684;9.032;2023-04-01T02:28:10;6.90;88.40
37322;DHT22;23697;48.684;9.032;2023-04-01T02:30:55;6.90;88.40
37322;DHT22;23697;48.684;9.032;2023-04-01T02:33:41;6.80;88.40
37322;DHT22;23697;48.684;9.032;2023-04-01T02:36:25;6.80;88.40
37322;DHT22;23697;48.684;9.032;2023-04-01T02:39:09;6.80;88.30
37322;DHT22;23697;48.684;9.032;2023-04-01T02:41:55;6.80;88.30
37322;DHT22;23697;48.684;9.032;2023-04-01T02:44:39;6.80;88.30
37322;DHT22;23697;48.684;9.032;2023-04-01T02:47:23;6.70;88.30
37322;DHT22;23697;48.684;9.032;2023-04-01T02:49:50;6.80;88.20
37322;DHT22;23697;48.684;9.032;2023-04-01T02:52:23;6.70;88.10
37322;DHT22;23697;48.684;9.032;2023-04-01T02:54:49;6.70;88.10
37322;DHT22;23697;48.684;9.032;2023-04-01T02:57:20;6.70;88.20
37322;DHT22;23697;48.684;9.032;2023-04-01T02:59:47;6.70;88.00
37322;DHT22;23697;48.684;9.032;2023-04-01T03:02:19;6.70;87.90
37322;DHT22;23697;48.684;9.032;2023-04-01T03:04:48;6.70;87.90
37322;DHT22;23697;48.684;9.032;2023-04-01T03:07:17;6.60;87.90
37322;DHT22;23697;48.684;9.032;2023-04-01T03:09:44;6.60;87.90
37322;DHT22;23697;48.684;9.032;2023-04-01T03:12:11;6.60;87.90
37322;DHT22;23697;48.684;9.032;2023-04-01T03:14:39;6.60;88.00
37322;DHT22;23697;48.684;9.032;2023-04-01T03:17:05;6.60;88.00
37322;DHT22;23697;48.684;9.032;2023-04-01T03:19:32;6.60;88.00
37322;DHT22;23697;48.684;9.032;2023-04-01T03:21:59;6.60;87.90
37322;DHT22;23697;48.684;9.032;2023-04-01T03:24:26;6.60;87.90
37322;DHT22;23697;48.684;9.032;2023-04-01T03:26:52;6.60;87.80
37322;DHT22;23697;48.684;9.032;2023-04-01T03:29:19;6.60;87.80
37322;DHT22;23697;48.684;9.032;2023-04-01T03:31:47;6.60;87.80
37322;DHT22;23697;48.684;9.032;2023-04-01T03:34:14;6.60;87.80
37322;DHT22;23697;48.684;9.032;2023-04-01T03:36:41;6.60;87.80
37322;DHT22;23697;48.684;9.032;2023-04-01T03:39:08;6.60;87.90
37322;DHT22;23697;48.684;9.032;2023-04-01T03:41:35;6.70;87.70
37322;DHT22;23697;48.684;9.032;2023-04-01T03:44:02;6.60;87.70
37322;DHT22;23697;48.684;9.032;2023-04-01T03:46:29;6.60;87.60
37322;DHT22;23697;48.684;9.032;2023-04-01T03:48:57;6.60;87.60
37322;DHT22;23697;48.684;9.032;2023-04-01T03:51:23;6.60;87.60
37322;DHT22;23697;48.684;9.032;2023-04-01T03:53:50;6.60;87.60
37322;DHT22;23697;48.684;9.032;2023-04-01T03:56:17;6.60;87.60
37322;DHT22;23697;48.684;9.032;2023-04-01T03:58:43;6.50;87.60
37322;DHT22;23697;48.684;9.032;2023-04-01T04:01:13;6.60;87.60
37322;DHT22;23697;48.684;9.032;2023-04-01T04:03:43;6.50;87.50
37322;DHT22;23697;48.684;9.032;2023-04-01T04:06:12;6.40;87.50
37322;DHT22;23697;48.684;9.032;2023-04-01T04:08:39;6.40;87.40
37322;DHT22;23697;48.684;9.032;2023-04-01T04:11:06;6.40;87.30
37322;DHT22;23697;48.684;9.032;2023-04-01T04:13:33;6.30;87.40
37322;DHT22;23697;48.684;9.032;2023-04-01T04:15:59;6.30;87.40
37322;DHT22;23697;48.684;9.032;2023-04-01T04:18:28;6.30;87.40
37322;DHT22;23697;48.684;9.032;2023-04-01T04:20:54;6.20;87.50
37322;DHT22;23697;48.684;9.032;2023-04-01T04:23:23;6.20;87.50
37322;DHT22;23697;48.684;9.032;2023-04-01T04:25:53;6.20;87.50
37322;DHT22;23697;48.684;9.032;2023-04-01T04:28:20;6.10;87.50
37322;DHT22;23697;48.684;9.032;2023-04-01T04:30:47;6.10;87.50
37322;DHT22;23697;48.684;9.032;2023-04-01T04:33:13;6.10;87.60
37322;DHT22;23697;48.684;9.032;2023-04-01T04:35:40;6.10;87.60
37322;DHT22;23697;48.684;9.032;2023-04-01T04:38:07;6.00;87.70
37322;DHT22;23697;48.684;9.032;2023-04-01T04:40:36;6.10;87.80
37322;DHT22;23697;48.684;9.032;2023-04-01T04:43:03;6.00;87.90
37322;DHT22;23697;48.684;9.032;2023-04-01T04:45:30;6.10;88.00
37322;DHT22;23697;48.684;9.032;2023-04-01T04:47:56;6.10;88.10
37322;DHT22;23697;48.684;9.032;2023-04-01T04:50:23;6.10;88.10
37322;DHT22;23697;48.684;9.032;2023-04-01T04:52:50;6.10;88.20
37322;DHT22;23697;48.684;9.032;2023-04-01T04:55:17;6.10;88.30
37322;DHT22;23697;48.684;9.032;2023-04-01T04:57:45;6.10;88.20
37322;DHT22;23697;48.684;9.032;2023-04-01T05:00:12;6.10;88.30
37322;DHT22;23697;48.684;9.032;2023-04-01T05:02:38;6.10;88.40
37322;DHT22;23697;48.684;9.032;2023-04-01T05:05:05;6.30;88.40
37322;DHT22;23697;48.684;9.032;2023-04-01T05:07:32;6.20;88.50
37322;DHT22;23697;48.684;9.032;2023-04-01T05:09:59;6.30;88.50
37322;DHT22;23697;48.684;9.032;2023-04-01T05:12:26;6.30;88.50
37322;DHT22;23697;48.684;9.032;2023-04-01T05:14:56;6.30;88.50
37322;DHT22;23697;48.684;9.032;2023-04-01T05:17:23;6.50;88.50
37322;DHT22;23697;48.684;9.032;2023-04-01T05:19:53;6.50;88.50
37322;DHT22;23697;48.684;9.032;2023-04-01T05:22:20;6.50;88.30
37322;DHT22;23697;48.684;9.032;2023-04-01T05:24:47;6.50;88.30
37322;DHT22;23697;48.684;9.032;2023-04-01T05:27:14;6.60;88.20
37322;DHT22;23697;48.684;9.032;2023-04-01T05:29:40;6.60;87.90
37322;DHT22;23697;48.684;9.032;2023-04-01T05:32:09;6.70;87.80
37322;DHT22;23697;48.684;9.032;2023-04-01T05:34:37;6.70;87.60
37322;DHT22;23697;48.684;9.032;2023-04-01T05:37:07;6.80;87.60
37322;DHT22;23697;48.684;9.032;2023-04-01T05:39:35;6.80;87.40
37322;DHT22;23697;48.684;9.032;2023-04-01T05:42:02;6.80;87.50
37322;DHT22;23697;48.684;9.032;2023-04-01T05:44:32;6.80;87.40
37322;DHT22;23697;48.684;9.032;2023-04-01T05:46:59;6.80;87.10
37322;DHT22;23697;48.684;9.032;2023-04-01T05:49:27;6.90;87.10
37322;DHT22;23697;48.684;9.032;2023-04-01T05:51:54;6.90;86.90
37322;DHT22;23697;48.684;9.032;2023-04-01T05:54:21;6.90;86.80
37322;DHT22;23697;48.684;9.032;2023-04-01T05:56:51;7.00;86.60
37322;DHT22;23697;48.684;9.032;2023-04-01T05:59:21;7.10;86.50
37322;DHT22;23697;48.684;9.032;2023-04-01T06:02:02;7.20;86.40
37322;DHT22;23697;48.684;9.032;2023-04-01T06:04:43;7.20;85.90
37322;DHT22;23697;48.684;9.032;2023-04-01T06:07:12;7.40;85.80
37322;DHT22;23697;48.684;9.032;2023-04-01T06:09:58;7.40;85.60
37322;DHT22;23697;48.684;9.032;2023-04-01T06:12:42;7.40;85.40
37322;DHT22;23697;48.684;9.032;2023-04-01T06:15:25;7.50;85.30
37322;DHT22;23697;48.684;9.032;2023-04-01T06:21:14;7.50;85.00
37322;DHT22;23697;48.684;9.032;2023-04-01T06:24:05;7.60;85.00
37322;DHT22;23697;48.684;9.032;2023-04-01T06:26:51;7.60;84.80
37322;DHT22;23697;48.684;9.032;2023-04-01T06:29:42;7.60;84.90
37322;DHT22;23697;48.684;9.032;2023-04-01T06:32:16;7.60;84.90
37322;DHT22;23697;48.684;9.032;2023-04-01T06:43:53;7.60;84.80
37322;DHT22;23697;48.684;9.032;2023-04-01T06:46:37;7.60;85.20
37322;DHT22;23697;48.684;9.032;2023-04-01T06:49:21;7.60;85.20
37322;DHT22;23697;48.684;9.032;2023-04-01T06:52:02;7.60;85.20
37322;DHT22;23697;48.684;9.032;2023-04-01T06:54:47;7.60;85.30
37322;DHT22;23697;48.684;9.032;2023-04-01T06:57:30;7.70;85.20
37322;DHT22;23697;48.684;9.032;2023-04-01T07:03:13;7.80;85.40
37322;DHT22;23697;48.684;9.032;2023-04-01T07:05:47;7.80;84.90
37322;DHT22;23697;48.684;9.032;2023-04-01T07:08:17;7.90;84.90
37322;DHT22;23697;48.684;9.032;2023-04-01T07:10:55;7.90;85.00
37322;DHT22;23697;48.684;9.032;2023-04-01T07:13:32;7.80;84.80
37322;DHT22;23697;48.684;9.032;2023-04-01T07:16:04;7.90;85.00
37322;DHT22;23697;48.684;9.032;2023-04-01T07:18:44;7.90;84.90
37322;DHT22;23697;48.684;9.032;2023-04-01T07:21:24;8.00;85.00
37322;DHT22;23697;48.684;9.032;2023-04-01T07:23:52;8.00;84.90
37322;DHT22;23697;48.684;9.032;2023-04-01T07:26:46;8.00;85.00
37322;DHT22;23697;48.684;9.032;2023-04-01T07:29:25;8.00;85.30
37322;DHT22;23697;48.684;9.032;2023-04-01T07:35:03;8.00;84.90
37322;DHT22;23697;48.684;9.032;2023-04-01T07:37:36;8.00;84.50
37322;DHT22;23697;48.684;9.032;2023-04-01T07:40:21;8.00;84.50
37322;DHT22;23697;48.684;9.032;2023-04-01T07:45:58;8.10;84.40
37322;DHT22;23697;48.684;9.032;2023-04-01T07:48:33;8.10;84.20
37322;DHT22;23697;48.684;9.032;2023-04-01T07:51:12;8.10;84.10
37322;DHT22;23697;48.684;9.032;2023-04-01T07:53:43;8.20;84.50
37322;DHT22;23697;48.684;9.032;2023-04-01T07:56:27;8.30;84.40
37322;DHT22;23697;48.684;9.032;2023-04-01T07:59:02;8.40;84.00
37322;DHT22;23697;48.684;9.032;2023-04-01T08:01:30;8.40;83.70
37322;DHT22;23697;48.684;9.032;2023-04-01T08:04:05;8.40;84.30
37322;DHT22;23697;48.684;9.032;2023-04-01T08:06:56;8.40;84.20
37322;DHT22;23697;48.684;9.032;2023-04-01T08:09:43;8.40;84.30
37322;DHT22;23697;48.684;9.032;2023-04-01T08:12:18;8.40;84.30
37322;DHT22;23697;48.684;9.032;2023-04-01T08:14:53;8.40;84.80
37322;DHT22;23697;48.684;9.032;2023-04-01T08:17:28;8.40;85.20
37322;DHT22;23697;48.684;9.032;2023-04-01T08:23:00;8.50;85.20
37322;DHT22;23697;48.684;9.032;2023-04-01T08:25:28;8.50;85.20
37322;DHT22;23697;48.684;9.032;2023-04-01T08:27:59;8.40;84.50
37322;DHT22;23697;48.684;9.032;2023-04-01T08:30:35;8.40;84.90
37322;DHT22;23697;48.684;9.032;2023-04-01T08:33:21;8.40;85.60
37322;DHT22;23697;48.684;9.032;2023-04-01T08:35:55;8.40;85.60
37322;DHT22;23697;48.684;9.032;2023-04-01T08:38:24;8.30;85.60
37322;DHT22;23697;48.684;9.032;2023-04-01T08:40:57;8.20;85.80
37322;DHT22;23697;48.684;9.032;2023-04-01T08:43:36;8.20;85.90
37322;DHT22;23697;48.684;9.032;2023-04-01T08:46:12;8.00;86.10
37322;DHT22;23697;48.684;9.032;2023-04-01T08:48:50;7.80;86.00
37322;DHT22;23697;48.684;9.032;2023-04-01T08:51:36;7.90;86.40
37322;DHT22;23697;48.684;9.032;2023-04-01T08:54:18;7.80;86.40
37322;DHT22;23697;48.684;9.032;2023-04-01T08:56:50;7.80;86.70
37322;DHT22;23697;48.684;9.032;2023-04-01T09:02:32;8.00;86.80
37322;DHT22;23697;48.684;9.032;2023-04-01T09:08:19;8.40;86.80
37322;DHT22;23697;48.684;9.032;2023-04-01T09:32:42;9.90;83.50
37322;DHT22;23697;48.684;9.032;2023-04-01T09:35:33;9.60;82.80
37322;DHT22;23697;48.684;9.032;2023-04-01T09:38:14;9.60;83.50
37322;DHT22;23697;48.684;9.032;2023-04-01T09:40:57;9.40;83.20
37322;DHT22;23697;48.684;9.032;2023-04-01T09:43:56;9.30;83.80
37322;DHT22;23697;48.684;9.032;2023-04-01T09:46:37;9.20;83.80
37322;DHT22;23697;48.684;9.032;2023-04-01T09:52:10;9.10;83.60
37322;DHT22;23697;48.684;9.032;2023-04-01T09:55:04;9.10;84.30
37322;DHT22;23697;48.684;9.032;2023-04-01T09:58:07;9.00;83.90
37322;DHT22;23697;48.684;9.032;2023-04-01T10:03:59;8.90;84.50
37322;DHT22;23697;48.684;9.032;2023-04-01T10:09:22;8.80;84.00
37322;DHT22;23697;48.684;9.032;2023-04-01T10:27:07;9.30;83.20
37322;DHT22;23697;48.684;9.032;2023-04-01T11:19:43;10.30;77.20
37322;DHT22;23697;48.684;9.032;2023-04-01T11:23:03;10.20;77.00
37322;DHT22;23697;48.684;9.032;2023-04-01T11:26:20;10.10;77.50
37322;DHT22;23697;48.684;9.032;2023-04-01T11:31:58;10.30;77.70
37322;DHT22;23697;48.684;9.032;2023-04-01T12:29:06;10.70;76.30
37322;DHT22;23697;48.684;9.032;2023-04-01T12:30:58;10.50;75.60
37322;DHT22;23697;48.684;9.032;2023-04-01T12:35:53;10.30;77.50
37322;DHT22;23697;48.684;9.032;2023-04-01T12:36:52;10.20;77.60
37322;DHT22;23697;48.684;9.032;2023-04-01T12:42:20;10.10;78.90
37322;DHT22;23697;48.684;9.032;2023-04-01T12:43:28;10.20;79.10
37322;DHT22;23697;48.684;9.032;2023-04-01T12:46:53;10.50;80.20
37322;DHT22;23697;48.684;9.032;2023-04-01T12:49:24;10.90;77.10
37322;DHT22;23697;48.684;9.032;2023-04-01T12:55:31;11.20;75.30
37322;DHT22;23697;48.684;9.032;2023-04-01T13:02:37;11.20;74.60
37322;DHT22;23697;48.684;9.032;2023-04-01T13:16:11;11.10;73.90
37322;DHT22;23697;48.684;9.032;2023-04-01T13:19:03;11.10;75.00
37322;DHT22;23697;48.684;9.032;2023-04-01T13:22:07;11.00;74.60
37322;DHT22;23697;48.684;9.032;2023-04-01T13:25:08;11.20;74.20
37322;DHT22;23697;48.684;9.032;2023-04-01T13:28:17;11.10;73.30
37322;DHT22;23697;48.684;9.032;2023-04-01T13:31:08;11.00;72.80
37322;DHT22;23697;48.684;9.032;2023-04-01T13:33:39;10.80;74.40
37322;DHT22;23697;48.684;9.032;2023-04-01T13:36:32;10.70;74.80
37322;DHT22;23697;48.684;9.032;2023-04-01T13:39:31;10.60;75.50
37322;DHT22;23697;48.684;9.032;2023-04-01T13:42:33;10.60;75.00
37322;DHT22;23697;48.684;9.032;2023-04-01T13:45:23;10.50;74.70
37322;DHT22;23697;48.684;9.032;2023-04-01T13:48:27;10.70;75.90
37322;DHT22;23697;48.684;9.032;2023-04-01T13:51:19;10.80;74.60
37322;DHT22;23697;48.684;9.032;2023-04-01T13:57:30;10.80;74.70
37322;DHT22;23697;48.684;9.032;2023-04-01T14:06:27;10.90;74.50
37322;DHT22;23697;48.684;9.032;2023-04-01T14:12:12;10.80;75.10
37322;DHT22;23697;48.684;9.032;2023-04-01T14:14:47;10.80;75.80
37322;DHT22;23697;48.684;9.032;2023-04-01T14:18:42;11.00;76.20
37322;DHT22;23697;48.684;9.032;2023-04-01T14:23:43;10.80;76.20
37322;DHT22;23697;48.684;9.032;2023-04-01T14:29:02;10.70;77.20
37322;DHT22;23697;48.684;9.032;2023-04-01T14:31:44;10.70;76.50
37322;DHT22;23697;48.684;9.032;2023-04-01T14:34:22;10.80;76.70
37322;DHT22;23697;48.684;9.032;2023-04-01T14:36:53;10.80;76.50
37322;DHT22;23697;48.684;9.032;2023-04-01T14:39:33;10.80;74.90
37322;DHT22;23697;48.684;9.032;2023-04-01T14:42:07;10.70;74.20
37322;DHT22;23697;48.684;9.032;2023-04-01T14:44:43;10.60;74.20
37322;DHT22;23697;48.684;9.032;2023-04-01T14:50:02;10.50;74.10
37322;DHT22;23697;48.684;9.032;2023-04-01T14:52:30;10.50;74.70
37322;DHT22;23697;48.684;9.032;2023-04-01T14:55:00;10.60;74.70
37322;DHT22;23697;48.684;9.032;2023-04-01T14:57:29;10.70;74.40
37322;DHT22;23697;48.684;9.032;2023-04-01T14:59:59;10.50;73.50
37322;DHT22;23697;48.684;9.032;2023-04-01T15:02:35;10.50;74.50
37322;DHT22;23697;48.684;9.032;2023-04-01T15:05:08;10.50;74.50
37322;DHT22;23697;48.684;9.032;2023-04-01T15:13:30;10.60;75.30
37322;DHT22;23697;48.684;9.032;2023-04-01T15:16:01;10.60;74.90
37322;DHT22;23697;48.684;9.032;2023-04-01T15:18:33;10.50;74.90
37322;DHT22;23697;48.684;9.032;2023-04-01T15:21:05;10.60;74.70
37322;DHT22;23697;48.684;9.032;2023-04-01T15:23:41;10.60;75.70
37322;DHT22;23697;48.684;9.032;2023-04-01T15:26:17;10.70;75.40
37322;DHT22;23697;48.684;9.032;2023-04-01T15:28:49;10.70;74.30
37322;DHT22;23697;48.684;9.032;2023-04-01T15:31:21;10.60;74.90
37322;DHT22;23697;48.684;9.032;2023-04-01T15:33:52;10.60;75.20
37322;DHT22;23697;48.684;9.032;2023-04-01T15:36:28;10.50;75.00
37322;DHT22;23697;48.684;9.032;2023-04-01T15:38:58;10.50;75.30
37322;DHT22;23697;48.684;9.032;2023-04-01T15:41:28;10.50;75.90
37322;DHT22;23697;48.684;9.032;2023-04-01T15:44:02;10.50;75.70
37322;DHT22;23697;48.684;9.032;2023-04-01T15:46:43;10.40;75.70
37322;DHT22;23697;48.684;9.032;2023-04-01T15:49:15;10.40;76.20
37322;DHT22;23697;48.684;9.032;2023-04-01T15:51:54;10.30;76.50
37322;DHT22;23697;48.684;9.032;2023-04-01T15:54:23;10.10;77.20
37322;DHT22;23697;48.684;9.032;2023-04-01T15:56:53;10.00;78.10
37322;DHT22;23697;48.684;9.032;2023-04-01T15:59:40;9.90;78.80
37322;DHT22;23697;48.684;9.032;2023-04-01T16:02:10;9.90;79.50
37322;DHT22;23697;48.684;9.032;2023-04-01T16:04:44;9.80;79.70
37322;DHT22;23697;48.684;9.032;2023-04-01T16:07:15;9.80;79.60
37322;DHT22;23697;48.684;9.032;2023-04-01T16:09:50;9.70;80.50
37322;DHT22;23697;48.684;9.032;2023-04-01T16:12:25;9.70;80.50
37322;DHT22;23697;48.684;9.032;2023-04-01T16:15:01;9.60;80.40
37322;DHT22;23697;48.684;9.032;2023-04-01T16:17:41;9.60;79.90
37322;DHT22;23697;48.684;9.032;2023-04-01T16:20:16;9.60;80.30
37322;DHT22;23697;48.684;9.032;2023-04-01T16:22:45;9.60;80.30
37322;DHT22;23697;48.684;9.032;2023-04-01T16:25:21;9.60;79.70
37322;DHT22;23697;48.684;9.032;2023-04-01T16:27:58;9.60;80.40
37322;DHT22;23697;48.684;9.032;2023-04-01T16:30:38;9.60;80.50
37322;DHT22;23697;48.684;9.032;2023-04-01T16:33:10;9.70;80.30
37322;DHT22;23697;48.684;9.032;2023-04-01T16:35:45;9.80;80.00
37322;DHT22;23697;48.684;9.032;2023-04-01T16:38:25;9.70;80.00
37322;DHT22;23697;48.684;9.032;2023-04-01T16:40:58;9.70;79.40
37322;DHT22;23697;48.684;9.032;2023-04-01T16:43:28;9.70;79.70
37322;DHT22;23697;48.684;9.032;2023-04-01T16:46:05;9.70;79.50
37322;DHT22;23697;48.684;9.032;2023-04-01T16:48:35;9.70;78.50
37322;DHT22;23697;48.684;9.032;2023-04-01T16:51:15;9.60;78.50
37322;DHT22;23697;48.684;9.032;2023-04-01T16:53:43;9.60;78.90
37322;DHT22;23697;48.684;9.032;2023-04-01T16:56:13;9.60;79.00
37322;DHT22;23697;48.684;9.032;2023-04-01T16:58:43;9.60;79.10
37322;DHT22;23697;48.684;9.032;2023-04-01T17:01:18;9.60;79.20
37322;DHT22;23697;48.684;9.032;2023-04-01T17:03:49;9.50;79.70
37322;DHT22;23697;48.684;9.032;2023-04-01T17:06:19;9.40;79.50
37322;DHT22;23697;48.684;9.032;2023-04-01T17:08:53;9.40;80.00
37322;DHT22;23697;48.684;9.032;2023-04-01T17:11:21;9.30;79.60
37322;DHT22;23697;48.684;9.032;2023-04-01T17:13:56;9.30;80.10
37322;DHT22;23697;48.684;9.032;2023-04-01T17:19:10;9.30;79.90
37322;DHT22;23697;48.684;9.032;2023-04-01T17:21:46;9.20;79.90
37322;DHT22;23697;48.684;9.032;2023-04-01T17:24:20;9.20;80.10
37322;DHT22;23697;48.684;9.032;2023-04-01T17:26:50;9.20;80.10
37322;DHT22;23697;48.684;9.032;2023-04-01T17:29:21;9.20;80.10
37322;DHT22;23697;48.684;9.032;2023-04-01T17:32:01;9.20;79.50
37322;DHT22;23697;48.684;9.032;2023-04-01T17:37:30;9.10;80.00
37322;DHT22;23697;48.684;9.032;2023-04-01T17:40:06;9.10;80.30
37322;DHT22;23697;48.684;9.032;2023-04-01T17:42:40;9.10;80.60
37322;DHT22;23697;48.684;9.032;2023-04-01T17:45:10;9.10;80.60
37322;DHT22;23697;48.684;9.032;2023-04-01T17:47:46;9.00;80.90
37322;DHT22;23697;48.684;9.032;2023-04-01T17:50:18;9.00;81.10
37322;DHT22;23697;48.684;9.032;2023-04-01T17:52:48;9.00;80.90
37322;DHT22;23697;48.684;9.032;2023-04-01T17:55:26;9.00;81.00
37322;DHT22;23697;48.684;9.032;2023-04-01T17:57:58;8.90;81.40
37322;DHT22;23697;48.684;9.032;2023-04-01T18:00:29;8.90;81.50
37322;DHT22;23697;48.684;9.032;2023-04-01T18:03:01;8.90;81.90
37322;DHT22;23697;48.684;9.032;2023-04-01T18:05:35;8.90;82.10
37322;DHT22;23697;48.684;9.032;2023-04-01T18:08:10;8.90;82.30
37322;DHT22;23697;48.684;9.032;2023-04-01T18:10:40;8.90;82.50
37322;DHT22;23697;48.684;9.032;2023-04-01T18:15:54;8.80;83.80
37322;DHT22;23697;48.684;9.032;2023-04-01T18:18:30;8.70;84.30
37322;DHT22;23697;48.684;9.032;2023-04-01T18:21:03;8.60;84.20
37322;DHT22;23697;48.684;9.032;2023-04-01T18:23:35;8.50;83.90
37322;DHT22;23697;48.684;9.032;2023-04-01T18:26:04;8.30;83.90
37322;DHT22;23697;48.684;9.032;2023-04-01T18:28:32;8.20;84.00
37322;DHT22;23697;48.684;9.032;2023-04-01T18:31:08;8.10;84.20
37322;DHT22;23697;48.684;9.032;2023-04-01T18:33:37;8.10;84.30
37322;DHT22;23697;48.684;9.032;2023-04-01T18:36:13;7.90;84.10
37322;DHT22;23697;48.684;9.032;2023-04-01T18:38:46;7.90;83.70
37322;DHT22;23697;48.684;9.032;2023-04-01T18:41:15;7.90;83.60
37322;DHT22;23697;48.684;9.032;2023-04-01T18:43:48;7.80;83.60
37322;DHT22;23697;48.684;9.032;2023-04-01T18:46:23;7.70;83.30
37322;DHT22;23697;48.684;9.032;2023-04-01T18:48:57;7.70;83.20
37322;DHT22;23697;48.684;9.032;2023-04-01T18:51:25;7.60;83.30
37322;DHT22;23697;48.684;9.032;2023-04-01T18:54:02;7.60;83.40
37322;DHT22;23697;48.684;9.032;2023-04-01T18:56:32;7.50;83.40
37322;DHT22;23697;48.684;9.032;2023-04-01T18:59:02;7.50;83.80
37322;DHT22;23697;48.684;9.032;2023-04-01T19:01:35;7.40;84.00
37322;DHT22;23697;48.684;9.032;2023-04-01T19:04:05;7.30;84.20
37322;DHT22;23697;48.684;9.032;2023-04-01T19:06:35;7.30;84.50
37322;DHT22;23697;48.684;9.032;2023-04-01T19:09:15;7.30;84.50
37322;DHT22;23697;48.684;9.032;2023-04-01T19:11:43;7.20;84.50
37322;DHT22;23697;48.684;9.032;2023-04-01T19:14:16;7.20;84.60
37322;DHT22;23697;48.684;9.032;2023-04-01T19:16:48;7.10;84.70
37322;DHT22;23697;48.684;9.032;2023-04-01T19:19:20;7.10;84.90
37322;DHT22;23697;48.684;9.032;2023-04-01T19:21:56;7.10;85.00
37322;DHT22;23697;48.684;9.032;2023-04-01T19:27:09;7.00;85.30
37322;DHT22;23697;48.684;9.032;2023-04-01T19:29:43;7.10;85.40
37322;DHT22;23697;48.684;9.032;2023-04-01T19:32:16;7.10;85.50
37322;DHT22;23697;48.684;9.032;2023-04-01T19:34:52;7.10;85.50
37322;DHT22;23697;48.684;9.032;2023-04-01T19:37:27;7.10;85.60
37322;DHT22;23697;48.684;9.032;2023-04-01T19:39:58;7.10;85.60
37322;DHT22;23697;48.684;9.032;2023-04-01T19:42:30;7.00;85.60
37322;DHT22;23697;48.684;9.032;2023-04-01T19:45:01;7.00;85.70
37322;DHT22;23697;48.684;9.032;2023-04-01T19:47:35;6.90;85.70
37322;DHT22;23697;48.684;9.032;2023-04-01T19:50:06;6.90;85.80
37322;DHT22;23697;48.684;9.032;2023-04-01T19:52:39;6.90;85.90
37322;DHT22;23697;48.684;9.032;2023-04-01T19:55:11;6.90;85.90
37322;DHT22;23697;48.684;9.032;2023-04-01T19:57:44;6.80;86.00
37322;DHT22;23697;48.684;9.032;2023-04-01T20:00:15;6.80;86.00
37322;DHT22;23697;48.684;9.032;2023-04-01T20:02:50;6.70;86.10
37322;DHT22;23697;48.684;9.032;2023-04-01T20:05:31;6.70;86.20
37322;DHT22;23697;48.684;9.032;2023-04-01T20:08:00;6.70;86.20
37322;DHT22;23697;48.684;9.032;2023-04-01T20:10:30;6.60;86.20
37322;DHT22;23697;48.684;9.032;2023-04-01T20:13:04;6.60;86.20
37322;DHT22;23697;48.684;9.032;2023-04-01T20:15:33;6.60;86.30
37322;DHT22;23697;48.684;9.032;2023-04-01T20:18:01;6.60;86.50
37322;DHT22;23697;48.684;9.032;2023-04-01T20:20:29;6.60;86.60
37322;DHT22;23697;48.684;9.032;2023-04-01T20:23:03;6.70;86.70
37322;DHT22;23697;48.684;9.032;2023-04-01T20:25:33;6.70;86.70
37322;DHT22;23697;48.684;9.032;2023-04-01T20:28:09;6.80;86.80
37322;DHT22;23697;48.684;9.032;2023-04-01T20:30:46;6.80;86.90
37322;DHT22;23697;48.684;9.032;2023-04-01T20:33:20;6.80;86.80
37322;DHT22;23697;48.684;9.032;2023-04-01T20:35:57;6.90;86.80
37322;DHT22;23697;48.684;9.032;2023-04-01T20:41:15;6.90;86.80
37322;DHT22;23697;48.684;9.032;2023-04-01T20:46:36;7.00;86.70
37322;DHT22;23697;48.684;9.032;2023-04-01T20:49:13;7.10;86.80